Time;durP1;ratioP1;P1;durP2;ratioP2;P2;SDS_P1;SDS_P2;PMS_P1;PMS_P2;Temp;Humidity;BMP_temperature;BMP_pressure;BME280_temperature;BME280_humidity;BME280_pressure;Samples;Min_cycle;Max_cycle;Signal;HPM_P1;HPM_P2
2023/03/04 00:01:50;;;;;;;13.77;8.70;;;1.70;99.90;;;;;;5016735;28;20211;-73
2023/03/04 00:04:16;;;;;;;11.20;7.63;;;1.70;99.90;;;;;;5016120;28;20192;-73
2023/03/04 00:06:42;;;;;;;11.60;8.00;;;1.60;99.90;;;;;;5015190;28;20180;-72
2023/03/04 00:09:07;;;;;;;11.90;8.53;;;1.60;99.90;;;;;;5015427;28;20201;-73
2023/03/04 00:11:33;;;;;;;12.90;9.50;;;1.50;99.90;;;;;;5016348;28;20185;-73
2023/03/04 00:13:59;;;;;;;13.93;9.03;;;1.50;99.90;;;;;;5013774;28;20180;-72
2023/03/04 00:16:27;;;;;;;12.87;8.40;;;1.50;99.90;;;;;;5015094;28;20653;-73
2023/03/04 00:18:55;;;;;;;10.10;7.50;;;1.40;99.90;;;;;;5015361;28;20220;-73
2023/03/04 00:21:21;;;;;;;10.80;8.23;;;1.50;99.90;;;;;;5016050;28;20256;-72
2023/03/04 00:23:46;;;;;;;11.50;7.90;;;1.40;99.90;;;;;;5014823;28;20276;-73
2023/03/04 00:26:12;;;;;;;12.93;8.50;;;1.30;99.90;;;;;;5015783;28;20212;-73
2023/03/04 00:28:39;;;;;;;11.43;8.50;;;1.30;99.90;;;;;;5015155;28;20205;-73
2023/03/04 00:31:08;;;;;;;15.47;8.63;;;1.30;99.90;;;;;;5017217;28;20196;-73
2023/03/04 00:33:34;;;;;;;12.73;8.20;;;1.20;99.90;;;;;;5016897;28;20719;-73
2023/03/04 00:36:00;;;;;;;10.17;8.13;;;1.20;99.90;;;;;;5017871;28;20217;-73
2023/03/04 00:38:26;;;;;;;11.77;8.93;;;1.20;99.90;;;;;;5019813;28;20216;-73
2023/03/04 00:40:51;;;;;;;13.83;8.40;;;1.10;99.90;;;;;;5018781;28;20204;-73
2023/03/04 00:43:17;;;;;;;13.80;8.87;;;1.20;99.90;;;;;;5014700;28;20192;-74
2023/03/04 00:45:43;;;;;;;11.80;8.67;;;1.10;99.90;;;;;;5015348;28;20630;-74
2023/03/04 00:48:08;;;;;;;13.40;9.53;;;1.10;99.90;;;;;;5014328;28;20633;-74
2023/03/04 00:50:34;;;;;;;12.00;8.77;;;1.00;99.90;;;;;;5015485;28;20188;-73
2023/03/04 00:53:00;;;;;;;15.77;8.20;;;1.00;99.90;;;;;;5015680;28;20203;-73
2023/03/04 00:55:26;;;;;;;14.37;8.67;;;1.00;99.90;;;;;;5015169;28;20189;-73
2023/03/04 00:57:52;;;;;;;13.30;8.77;;;1.00;99.90;;;;;;5015458;28;20541;-72
2023/03/04 01:00:18;;;;;;;13.33;8.97;;;1.00;99.90;;;;;;5016960;28;20224;-72
2023/03/04 01:02:43;;;;;;;11.37;8.77;;;1.00;99.90;;;;;;5015105;28;20172;-73
2023/03/04 01:05:09;;;;;;;13.40;9.03;;;1.00;99.90;;;;;;5012400;28;20192;-74
2023/03/04 01:07:34;;;;;;;13.40;9.10;;;1.00;99.90;;;;;;5016448;28;20255;-74
2023/03/04 01:10:00;;;;;;;13.37;9.20;;;1.00;99.90;;;;;;5014371;28;20519;-74
2023/03/04 01:12:27;;;;;;;14.10;9.13;;;1.00;99.90;;;;;;5014760;28;20260;-74
2023/03/04 01:14:52;;;;;;;11.63;8.23;;;0.90;99.90;;;;;;5013610;28;20165;-74
2023/03/04 01:17:18;;;;;;;13.07;9.53;;;0.90;99.90;;;;;;5016255;28;20188;-73
2023/03/04 01:19:43;;;;;;;10.87;8.57;;;0.90;99.90;;;;;;5015095;28;20237;-74
2023/03/04 01:22:11;;;;;;;13.13;8.57;;;0.90;99.90;;;;;;5015994;28;20242;-73
2023/03/04 01:24:36;;;;;;;12.47;8.77;;;0.90;99.90;;;;;;5023351;28;20239;-73
2023/03/04 01:27:02;;;;;;;13.40;9.50;;;1.00;99.90;;;;;;5021284;28;20196;-74
2023/03/04 01:29:28;;;;;;;12.60;9.03;;;1.00;99.90;;;;;;5014935;28;20696;-74
2023/03/04 01:31:53;;;;;;;12.90;8.40;;;1.00;99.90;;;;;;5013831;28;20647;-73
2023/03/04 01:34:19;;;;;;;14.27;9.47;;;1.00;99.90;;;;;;5013733;28;20276;-73
2023/03/04 01:36:44;;;;;;;13.43;9.50;;;0.80;99.90;;;;;;5013488;28;20212;-73
2023/03/04 01:39:10;;;;;;;12.00;8.67;;;0.70;99.90;;;;;;5015648;28;20208;-73
2023/03/04 01:41:36;;;;;;;13.03;8.57;;;0.70;99.90;;;;;;5013392;28;20205;-73
2023/03/04 01:44:01;;;;;;;15.20;8.63;;;0.90;99.90;;;;;;5012365;28;20177;-73
2023/03/04 01:46:29;;;;;;;11.60;8.00;;;0.90;99.90;;;;;;5013017;28;20192;-73
2023/03/04 01:48:55;;;;;;;13.10;9.37;;;0.90;99.90;;;;;;5013725;28;20216;-73
2023/03/04 01:51:21;;;;;;;13.43;8.63;;;0.90;99.90;;;;;;5014239;28;20664;-73
2023/03/04 01:53:50;;;;;;;15.07;9.80;;;0.80;99.90;;;;;;5012957;28;20189;-73
2023/03/04 01:56:34;;;;;;;14.03;8.97;;;0.80;99.90;;;;;;5015802;28;20812;-73
2023/03/04 01:59:13;;;;;;;11.80;8.27;;;0.70;99.90;;;;;;5017970;28;20227;-73
2023/03/04 02:01:41;;;;;;;10.63;8.13;;;0.60;99.90;;;;;;5021009;28;20204;-73
2023/03/04 02:04:08;;;;;;;13.37;8.43;;;0.50;99.90;;;;;;5017984;28;20188;-73
2023/03/04 02:06:36;;;;;;;14.13;9.53;;;0.60;99.90;;;;;;5016993;28;20200;-73
2023/03/04 02:09:02;;;;;;;11.07;8.43;;;0.60;99.90;;;;;;5015798;28;20271;-73
2023/03/04 02:11:28;;;;;;;15.60;9.33;;;0.70;99.90;;;;;;5015984;28;20870;-73
2023/03/04 02:13:54;;;;;;;14.07;9.73;;;0.80;99.90;;;;;;5013625;28;20222;-73
2023/03/04 02:16:19;;;;;;;14.20;9.47;;;0.90;99.90;;;;;;5013125;28;20270;-73
2023/03/04 02:18:45;;;;;;;13.03;9.27;;;0.90;99.90;;;;;;5016642;28;20310;-73
2023/03/04 02:21:17;;;;;;;12.10;8.47;;;0.90;99.90;;;;;;5019611;28;20216;-74
2023/03/04 02:23:57;;;;;;;14.47;8.93;;;0.80;99.90;;;;;;5020963;28;20200;-74
2023/03/04 02:26:30;;;;;;;11.43;8.17;;;0.80;99.90;;;;;;5018387;28;20654;-72
2023/03/04 02:28:58;;;;;;;12.60;9.03;;;0.70;99.90;;;;;;5016360;28;20209;-72
2023/03/04 02:31:35;;;;;;;11.60;7.80;;;0.70;99.90;;;;;;5016723;28;20180;-73
2023/03/04 02:34:04;;;;;;;11.67;8.63;;;0.60;99.90;;;;;;5018429;28;20192;-73
2023/03/04 02:36:31;;;;;;;12.37;8.53;;;0.50;99.90;;;;;;5016169;28;20667;-73
2023/03/04 02:39:11;;;;;;;11.07;8.50;;;0.40;99.90;;;;;;5016713;28;20205;-73
2023/03/04 02:41:37;;;;;;;15.03;9.70;;;0.30;99.90;;;;;;5015978;28;20815;-74
2023/03/04 02:44:15;;;;;;;12.33;8.70;;;0.30;99.90;;;;;;5014067;28;20319;-74
2023/03/04 02:46:40;;;;;;;13.10;9.60;;;0.30;99.90;;;;;;5017338;28;20703;-76
2023/03/04 02:49:06;;;;;;;13.83;9.13;;;0.30;99.90;;;;;;5015265;28;20338;-75
2023/03/04 02:51:31;;;;;;;12.43;8.43;;;0.30;99.90;;;;;;5012769;28;20728;-74
2023/03/04 02:53:57;;;;;;;14.93;9.53;;;0.30;99.90;;;;;;5014537;28;20181;-72
2023/03/04 02:56:23;;;;;;;12.53;9.23;;;0.30;99.90;;;;;;5011603;28;20192;-71
2023/03/04 02:58:48;;;;;;;12.47;8.80;;;0.30;99.90;;;;;;5013139;28;20212;-73
2023/03/04 03:01:14;;;;;;;15.17;9.57;;;0.20;99.90;;;;;;5015937;28;20275;-72
2023/03/04 03:03:39;;;;;;;11.73;9.07;;;0.10;99.90;;;;;;5013178;28;20562;-72
2023/03/04 03:06:05;;;;;;;10.67;8.03;;;0.00;99.90;;;;;;5012705;28;20185;-72
2023/03/04 03:08:31;;;;;;;12.33;8.93;;;0.10;99.90;;;;;;5010535;28;20218;-73
2023/03/04 03:10:56;;;;;;;12.27;8.23;;;0.10;99.90;;;;;;5011031;28;20181;-73
2023/03/04 03:13:22;;;;;;;14.53;9.87;;;0.10;99.90;;;;;;5013237;28;20195;-72
2023/03/04 03:15:48;;;;;;;13.97;9.37;;;0.20;99.90;;;;;;5013625;28;20185;-72
2023/03/04 03:18:13;;;;;;;12.30;9.40;;;0.10;99.90;;;;;;5013247;28;20213;-73
2023/03/04 03:20:39;;;;;;;10.70;8.70;;;0.10;99.90;;;;;;5014175;28;20256;-73
2023/03/04 03:23:04;;;;;;;14.17;9.63;;;0.00;99.90;;;;;;5012744;28;20190;-73
2023/03/04 03:25:30;;;;;;;14.73;9.30;;;0.00;99.90;;;;;;5012949;28;20640;-73
2023/03/04 03:27:56;;;;;;;14.40;9.60;;;-0.10;99.90;;;;;;5011522;28;20645;-70
2023/03/04 03:30:21;;;;;;;13.77;9.93;;;-0.10;99.90;;;;;;5014332;28;20179;-72
2023/03/04 03:32:47;;;;;;;13.30;9.63;;;-0.10;99.90;;;;;;5011223;28;20196;-70
2023/03/04 03:35:12;;;;;;;12.33;8.73;;;-0.10;99.90;;;;;;5011795;28;20188;-72
2023/03/04 03:37:38;;;;;;;10.97;9.17;;;-0.10;99.90;;;;;;5014637;28;20312;-72
2023/03/04 03:40:04;;;;;;;14.93;9.00;;;-0.10;99.90;;;;;;5011970;28;20671;-71
2023/03/04 03:42:30;;;;;;;13.70;9.80;;;-0.20;99.90;;;;;;5012790;28;20259;-70
2023/03/04 03:44:55;;;;;;;13.30;10.30;;;-0.30;99.90;;;;;;5014373;28;20197;-71
2023/03/04 03:47:21;;;;;;;14.30;9.87;;;-0.40;99.90;;;;;;5014309;28;20849;-73
2023/03/04 03:49:47;;;;;;;12.03;8.27;;;-0.40;99.90;;;;;;5014439;28;20264;-76
2023/03/04 03:52:12;;;;;;;12.30;9.07;;;-0.40;99.90;;;;;;5012527;28;20617;-74
2023/03/04 03:54:38;;;;;;;14.77;10.00;;;-0.50;99.90;;;;;;5013574;28;20172;-72
2023/03/04 03:57:04;;;;;;;14.53;9.40;;;-0.50;99.90;;;;;;5013296;28;20185;-72
2023/03/04 03:59:30;;;;;;;13.60;9.50;;;-0.60;99.90;;;;;;5009315;28;20312;-72
2023/03/04 04:01:55;;;;;;;14.57;9.10;;;-0.60;99.90;;;;;;5011481;28;20215;-72
2023/03/04 04:04:21;;;;;;;14.57;9.40;;;-0.70;99.90;;;;;;5013644;28;20224;-72
2023/03/04 04:06:46;;;;;;;12.50;9.17;;;-0.70;99.90;;;;;;5013686;28;22847;-72
2023/03/04 04:09:12;;;;;;;12.57;9.27;;;-0.70;99.90;;;;;;5012139;28;20279;-72
2023/03/04 04:11:37;;;;;;;14.77;9.40;;;-0.70;99.90;;;;;;5013513;28;20242;-72
2023/03/04 04:14:03;;;;;;;13.67;9.40;;;-0.70;99.90;;;;;;5014554;28;20189;-72
2023/03/04 04:16:29;;;;;;;13.80;9.87;;;-0.70;99.90;;;;;;5012356;28;20236;-71
2023/03/04 04:18:55;;;;;;;13.37;8.63;;;-0.70;99.90;;;;;;5011066;28;20778;-72
2023/03/04 04:21:20;;;;;;;15.43;8.87;;;-0.70;99.90;;;;;;5013797;28;20216;-71
2023/03/04 04:23:46;;;;;;;14.57;9.37;;;-0.70;99.90;;;;;;5012280;28;20185;-71
2023/03/04 04:26:11;;;;;;;11.10;8.93;;;-0.80;99.90;;;;;;5010052;28;20181;-72
2023/03/04 04:28:37;;;;;;;12.23;8.73;;;-0.70;99.90;;;;;;5013187;28;20211;-72
2023/03/04 04:31:07;;;;;;;13.53;9.03;;;-0.80;99.90;;;;;;5014706;28;20181;-72
2023/03/04 04:33:34;;;;;;;13.90;9.53;;;-0.80;99.90;;;;;;5014118;28;20556;-71
2023/03/04 04:36:00;;;;;;;12.70;8.67;;;-0.90;99.90;;;;;;5014936;28;20185;-72
2023/03/04 04:38:26;;;;;;;12.73;8.73;;;-0.80;99.90;;;;;;5012495;28;20235;-72
2023/03/04 04:40:52;;;;;;;11.43;9.63;;;-0.80;99.90;;;;;;5013168;28;20209;-71
2023/03/04 04:43:17;;;;;;;11.03;8.97;;;-0.90;99.90;;;;;;5015133;28;20670;-71
2023/03/04 04:45:43;;;;;;;13.60;8.77;;;-0.90;99.90;;;;;;5016735;28;20189;-72
2023/03/04 04:48:08;;;;;;;11.73;8.73;;;-0.90;99.90;;;;;;5016233;28;20668;-72
2023/03/04 04:50:34;;;;;;;11.70;9.47;;;-1.00;99.90;;;;;;5014294;28;20640;-72
2023/03/04 04:53:00;;;;;;;14.47;10.17;;;-1.10;99.90;;;;;;5009545;28;20622;-71
2023/03/04 04:55:25;;;;;;;12.13;8.73;;;-1.20;99.90;;;;;;5015725;28;20188;-71
2023/03/04 04:57:51;;;;;;;13.87;9.37;;;-1.20;99.90;;;;;;5012932;28;20659;-71
2023/03/04 05:00:17;;;;;;;12.80;8.67;;;-1.10;99.90;;;;;;5016105;28;20259;-71
2023/03/04 05:02:43;;;;;;;12.10;8.87;;;-1.10;99.90;;;;;;5014362;28;20272;-72
2023/03/04 05:05:09;;;;;;;11.43;8.83;;;-1.10;99.90;;;;;;5014743;28;20260;-73
2023/03/04 05:07:35;;;;;;;14.77;9.97;;;-1.20;99.90;;;;;;5014031;28;20553;-72
2023/03/04 05:10:01;;;;;;;13.90;9.20;;;-1.20;99.90;;;;;;5014788;28;20243;-71
2023/03/04 05:12:27;;;;;;;12.80;9.37;;;-1.30;99.90;;;;;;5014993;28;20304;-71
2023/03/04 05:14:52;;;;;;;13.60;9.60;;;-1.30;99.90;;;;;;5015685;28;20192;-72
2023/03/04 05:17:18;;;;;;;11.40;9.50;;;-1.40;99.90;;;;;;5015615;28;20220;-72
2023/03/04 05:19:43;;;;;;;10.53;8.70;;;-1.40;99.90;;;;;;5013145;28;20222;-72
2023/03/04 05:22:09;;;;;;;11.27;9.17;;;-1.40;99.90;;;;;;5015540;28;20318;-73
2023/03/04 05:24:35;;;;;;;12.83;9.53;;;-1.40;99.90;;;;;;5014785;28;20230;-72
2023/03/04 05:27:01;;;;;;;12.07;8.47;;;-1.40;99.90;;;;;;5014814;28;20547;-72
2023/03/04 05:29:26;;;;;;;12.83;9.20;;;-1.40;99.90;;;;;;5014592;28;20208;-73
2023/03/04 05:31:52;;;;;;;14.47;8.87;;;-1.50;99.90;;;;;;5013053;28;20188;-72
2023/03/04 05:34:17;;;;;;;12.13;8.83;;;-1.40;99.90;;;;;;5016822;28;20188;-72
2023/03/04 05:36:43;;;;;;;11.10;8.83;;;-1.40;99.90;;;;;;5013680;28;20194;-73
2023/03/04 05:39:09;;;;;;;11.57;8.83;;;-1.40;99.90;;;;;;5014495;28;20300;-72
2023/03/04 05:41:34;;;;;;;14.23;10.07;;;-1.40;99.90;;;;;;5013020;28;20213;-72
2023/03/04 05:44:00;;;;;;;9.53;8.13;;;-1.40;99.90;;;;;;5015169;28;20310;-73
2023/03/04 05:46:25;;;;;;;12.60;9.07;;;-1.30;99.90;;;;;;5013980;28;20188;-72
2023/03/04 05:48:52;;;;;;;15.43;9.87;;;-1.20;99.90;;;;;;5011902;28;20201;-75
2023/03/04 05:51:18;;;;;;;13.73;10.87;;;-1.30;99.90;;;;;;5015085;28;20197;-75
2023/03/04 05:53:44;;;;;;;17.53;10.30;;;-1.30;99.90;;;;;;5013986;28;20203;-75
2023/03/04 05:56:15;;;;;;;14.83;10.40;;;-1.30;99.90;;;;;;5014659;28;20262;-75
2023/03/04 05:58:41;;;;;;;17.13;10.57;;;-1.40;99.90;;;;;;5013423;28;20250;-75
2023/03/04 06:01:07;;;;;;;14.90;10.40;;;-1.50;99.90;;;;;;5013076;28;20212;-75
2023/03/04 06:03:33;;;;;;;15.37;11.13;;;-1.50;99.90;;;;;;5019092;28;20177;-74
2023/03/04 06:05:59;;;;;;;15.03;11.17;;;-1.40;99.90;;;;;;5015856;28;20608;-73
2023/03/04 06:08:25;;;;;;;13.60;10.10;;;-1.50;99.90;;;;;;5012562;28;20205;-73
2023/03/04 06:10:53;;;;;;;14.23;10.30;;;-1.40;99.90;;;;;;5013624;28;20295;-72
2023/03/04 06:13:18;;;;;;;13.63;10.50;;;-1.40;99.90;;;;;;5013263;28;20196;-72
2023/03/04 06:15:44;;;;;;;15.90;11.20;;;-1.30;99.90;;;;;;5014744;28;20470;-72
2023/03/04 06:18:10;;;;;;;12.93;10.40;;;-1.30;99.90;;;;;;5014028;28;20328;-73
2023/03/04 06:20:36;;;;;;;16.43;12.03;;;-1.20;99.90;;;;;;5014351;28;20239;-73
2023/03/04 06:23:02;;;;;;;18.17;10.37;;;-1.20;99.90;;;;;;5012014;28;20865;-73
2023/03/04 06:25:28;;;;;;;17.23;11.40;;;-1.10;99.90;;;;;;5013623;28;20181;-72
2023/03/04 06:27:53;;;;;;;14.93;11.90;;;-1.10;99.90;;;;;;5015873;28;20192;-73
2023/03/04 06:30:19;;;;;;;13.50;9.90;;;-1.00;99.90;;;;;;5016485;28;20174;-73
2023/03/04 06:32:46;;;;;;;16.80;11.47;;;-0.90;99.90;;;;;;5018822;28;20212;-74
2023/03/04 06:35:13;;;;;;;17.23;11.67;;;-0.90;99.90;;;;;;5015734;28;20187;-77
2023/03/04 06:37:39;;;;;;;13.17;10.70;;;-0.80;99.90;;;;;;5012328;28;20185;-75
2023/03/04 06:40:06;;;;;;;12.40;8.63;;;-0.80;99.90;;;;;;5014653;28;20207;-74
2023/03/04 06:42:32;;;;;;;15.97;11.43;;;-0.70;99.90;;;;;;5012561;28;20177;-75
2023/03/04 06:44:58;;;;;;;17.03;10.77;;;-0.70;99.90;;;;;;5013872;28;20188;-74
2023/03/04 06:47:24;;;;;;;15.10;11.13;;;-0.70;99.90;;;;;;5019305;28;20184;-74
2023/03/04 06:49:49;;;;;;;16.73;10.90;;;-0.70;99.90;;;;;;5018947;28;20694;-72
2023/03/04 06:52:15;;;;;;;14.03;10.37;;;-0.70;99.90;;;;;;5020657;28;20198;-75
2023/03/04 06:54:40;;;;;;;13.43;10.23;;;-0.60;99.90;;;;;;5019384;28;20233;-74
2023/03/04 06:57:06;;;;;;;15.27;10.50;;;-0.60;99.90;;;;;;5022137;28;20276;-73
2023/03/04 06:59:32;;;;;;;20.43;12.30;;;-0.40;99.90;;;;;;5019907;28;20204;-73
2023/03/04 07:01:57;;;;;;;17.57;11.90;;;-0.40;99.90;;;;;;5020475;28;20208;-72
2023/03/04 07:04:23;;;;;;;17.73;12.60;;;-0.30;99.90;;;;;;5022681;28;20257;-73
2023/03/04 07:06:49;;;;;;;15.70;11.13;;;-0.30;99.90;;;;;;5019894;28;20664;-74
2023/03/04 07:09:15;;;;;;;17.00;11.73;;;-0.30;99.90;;;;;;5020997;28;20240;-74
2023/03/04 07:11:40;;;;;;;16.67;10.63;;;-0.20;99.90;;;;;;5021506;28;20180;-72
2023/03/04 07:14:06;;;;;;;16.30;11.73;;;0.00;99.90;;;;;;5021062;28;20220;-73
2023/03/04 07:16:32;;;;;;;15.57;9.97;;;0.00;99.90;;;;;;5022011;28;20204;-74
2023/03/04 07:18:58;;;;;;;18.33;11.90;;;0.20;99.90;;;;;;5021212;28;20230;-73
2023/03/04 07:21:24;;;;;;;17.97;10.67;;;0.30;99.90;;;;;;5024482;28;20209;-72
2023/03/04 07:23:50;;;;;;;17.47;11.63;;;0.30;99.90;;;;;;5023487;28;20221;-71
2023/03/04 07:26:16;;;;;;;18.60;11.43;;;0.40;99.90;;;;;;5016859;28;20882;-72
2023/03/04 07:28:42;;;;;;;14.77;10.07;;;0.50;99.90;;;;;;5019680;28;20211;-72
2023/03/04 07:31:29;;;;;;;15.90;10.30;;;0.90;99.90;;;;;;5020766;28;20197;-76
2023/03/04 07:33:57;;;;;;;15.40;9.87;;;1.20;99.90;;;;;;5019755;28;20681;-74
2023/03/04 07:36:23;;;;;;;13.37;10.30;;;1.40;99.90;;;;;;5020548;28;20199;-74
2023/03/04 07:38:50;;;;;;;13.10;9.50;;;1.70;99.90;;;;;;5021032;28;20216;-74
2023/03/04 07:41:17;;;;;;;13.50;10.47;;;1.80;99.90;;;;;;5025235;28;20227;-74
2023/03/04 07:43:43;;;;;;;14.77;10.60;;;1.80;99.90;;;;;;5018087;28;20188;-73
2023/03/04 07:46:09;;;;;;;13.87;9.70;;;1.80;99.90;;;;;;5017798;28;20185;-73
2023/03/04 07:48:36;;;;;;;13.13;9.40;;;1.80;99.90;;;;;;5021454;28;20307;-73
2023/03/04 07:51:10;;;;;;;12.27;8.90;;;1.80;99.90;;;;;;5020573;28;20267;-75
2023/03/04 07:53:37;;;;;;;12.60;9.80;;;1.80;99.90;;;;;;5022768;28;20226;-74
2023/03/04 07:56:04;;;;;;;12.93;10.20;;;1.90;99.90;;;;;;5017320;28;20663;-74
2023/03/04 07:58:30;;;;;;;12.00;9.53;;;2.10;99.90;;;;;;5019145;28;20629;-75
2023/03/04 08:00:56;;;;;;;13.93;9.47;;;2.20;99.90;;;;;;5016790;28;20209;-76
2023/03/04 08:03:21;;;;;;;14.83;10.17;;;2.30;99.90;;;;;;5024025;28;20176;-75
2023/03/04 08:05:47;;;;;;;11.90;9.30;;;2.30;99.90;;;;;;5020020;28;20173;-75
2023/03/04 08:08:12;;;;;;;14.13;9.57;;;2.20;99.90;;;;;;5020969;28;20399;-75
2023/03/04 08:10:38;;;;;;;15.17;10.63;;;2.30;99.90;;;;;;5015343;28;20270;-74
2023/03/04 08:13:06;;;;;;;13.47;10.20;;;2.30;99.90;;;;;;5021163;28;20237;-75
2023/03/04 08:15:32;;;;;;;12.43;9.93;;;2.40;99.90;;;;;;5026722;28;20541;-74
2023/03/04 08:17:58;;;;;;;12.40;10.50;;;2.40;99.90;;;;;;5025077;28;20172;-74
2023/03/04 08:20:23;;;;;;;15.27;10.90;;;2.20;99.90;;;;;;5021170;28;20694;-75
2023/03/04 08:22:50;;;;;;;13.50;9.93;;;1.90;99.90;;;;;;5024635;28;20197;-75
2023/03/04 08:25:16;;;;;;;14.00;10.50;;;1.90;99.90;;;;;;5024754;28;20185;-74
2023/03/04 08:27:41;;;;;;;13.07;10.50;;;2.00;99.90;;;;;;5023598;28;20177;-75
2023/03/04 08:30:08;;;;;;;15.53;10.10;;;2.00;99.90;;;;;;5023465;28;20518;-75
2023/03/04 08:32:33;;;;;;;14.77;9.77;;;2.10;99.90;;;;;;5025722;28;20587;-73
2023/03/04 08:35:01;;;;;;;12.60;9.33;;;2.20;99.90;;;;;;5023762;28;20189;-74
2023/03/04 08:37:28;;;;;;;14.10;10.37;;;2.30;99.90;;;;;;5025344;28;20601;-74
2023/03/04 08:39:53;;;;;;;11.47;9.07;;;2.10;99.90;;;;;;5023128;28;20208;-74
2023/03/04 08:42:19;;;;;;;13.47;9.40;;;2.10;99.90;;;;;;5028373;28;20234;-74
2023/03/04 08:44:45;;;;;;;12.33;8.87;;;2.10;99.90;;;;;;5025194;28;20173;-74
2023/03/04 08:47:11;;;;;;;11.43;9.13;;;2.00;99.90;;;;;;5026103;28;20215;-74
2023/03/04 08:49:36;;;;;;;11.23;8.93;;;2.10;99.90;;;;;;5023574;28;20684;-78
2023/03/04 08:52:02;;;;;;;10.60;8.57;;;2.00;99.90;;;;;;5024235;28;20191;-75
2023/03/04 08:54:28;;;;;;;12.47;8.87;;;2.20;99.90;;;;;;5023568;28;20596;-74
2023/03/04 08:56:53;;;;;;;12.60;8.60;;;2.20;99.90;;;;;;5025742;28;20238;-74
2023/03/04 08:59:19;;;;;;;9.37;7.70;;;2.30;99.90;;;;;;5024864;28;20204;-75
2023/03/04 09:01:44;;;;;;;10.73;8.70;;;2.40;99.90;;;;;;5023492;28;20231;-74
2023/03/04 09:04:10;;;;;;;11.13;8.73;;;2.60;99.90;;;;;;5023732;28;20207;-74
2023/03/04 09:06:35;;;;;;;11.63;8.90;;;2.50;99.90;;;;;;5024010;28;20184;-74
2023/03/04 09:09:02;;;;;;;9.87;8.80;;;2.50;99.90;;;;;;5024351;28;20611;-74
2023/03/04 09:11:27;;;;;;;11.03;9.43;;;2.40;99.90;;;;;;5024545;28;20743;-73
2023/03/04 09:13:53;;;;;;;10.00;8.40;;;2.30;99.90;;;;;;5025996;28;20214;-74
2023/03/04 09:16:18;;;;;;;15.53;10.10;;;2.30;99.90;;;;;;5024066;28;20188;-74
2023/03/04 09:18:44;;;;;;;11.30;8.10;;;2.40;99.90;;;;;;5024108;28;20215;-74
2023/03/04 09:21:10;;;;;;;8.83;7.83;;;2.60;99.90;;;;;;5024198;28;20543;-74
2023/03/04 09:23:36;;;;;;;9.97;8.10;;;2.60;99.90;;;;;;5024792;28;20322;-74
2023/03/04 09:26:17;;;;;;;9.33;7.20;;;2.50;99.90;;;;;;5024194;28;20189;-74
2023/03/04 09:28:43;;;;;;;10.17;7.83;;;2.60;99.90;;;;;;5022062;28;20216;-74
2023/03/04 09:31:15;;;;;;;9.20;7.63;;;2.70;99.90;;;;;;5024662;28;20184;-73
2023/03/04 09:33:41;;;;;;;11.30;8.60;;;2.60;99.90;;;;;;5022412;28;20185;-74
2023/03/04 09:36:09;;;;;;;10.70;7.90;;;2.40;99.90;;;;;;5021842;28;20185;-74
2023/03/04 09:38:37;;;;;;;9.73;7.87;;;2.40;99.90;;;;;;5024439;28;20204;-74
2023/03/04 09:41:06;;;;;;;12.63;7.83;;;2.40;99.90;;;;;;5023403;28;20196;-74
2023/03/04 09:43:33;;;;;;;9.17;7.03;;;2.30;99.90;;;;;;5021279;28;20186;-74
2023/03/04 09:46:13;;;;;;;10.63;7.37;;;2.60;99.90;;;;;;5021780;28;20590;-72
2023/03/04 09:48:49;;;;;;;9.93;7.73;;;2.90;99.90;;;;;;5028299;28;20247;-74
2023/03/04 09:51:26;;;;;;;7.90;6.17;;;3.00;99.90;;;;;;5025385;28;20655;-74
2023/03/04 09:54:08;;;;;;;9.80;7.00;;;3.10;99.90;;;;;;5023909;28;20242;-74
2023/03/04 09:56:37;;;;;;;9.43;6.27;;;2.90;99.90;;;;;;5024219;28;20223;-74
2023/03/04 09:59:23;;;;;;;10.70;7.87;;;2.70;99.90;;;;;;5023513;28;20207;-74
2023/03/04 10:01:53;;;;;;;8.63;7.33;;;2.60;99.90;;;;;;5023036;28;20211;-73
2023/03/04 10:04:45;;;;;;;7.13;5.60;;;2.50;99.90;;;;;;5023065;28;20189;-74
2023/03/04 10:07:19;;;;;;;10.43;7.63;;;2.60;99.90;;;;;;5022629;28;20185;-75
2023/03/04 10:09:50;;;;;;;10.97;8.00;;;2.60;99.90;;;;;;5021205;28;20200;-74
2023/03/04 10:12:20;;;;;;;8.23;7.17;;;2.60;99.90;;;;;;5025645;28;20628;-71
2023/03/04 10:15:02;;;;;;;8.73;5.93;;;2.50;99.90;;;;;;5020750;28;20264;-74
2023/03/04 10:17:41;;;;;;;10.93;7.93;;;2.40;99.90;;;;;;5025821;28;20188;-74
2023/03/04 10:20:35;;;;;;;8.87;7.13;;;2.40;99.90;;;;;;5022851;28;20619;-73
2023/03/04 10:23:16;;;;;;;10.83;8.07;;;2.30;99.90;;;;;;5021889;28;20203;-73
2023/03/04 10:25:45;;;;;;;10.37;7.30;;;2.30;99.90;;;;;;5023845;28;20180;-74
2023/03/04 10:28:16;;;;;;;11.07;7.63;;;2.30;99.90;;;;;;5024701;28;20270;-73
2023/03/04 10:31:04;;;;;;;11.37;8.67;;;2.30;99.90;;;;;;5021479;28;20181;-73
2023/03/04 10:33:36;;;;;;;12.40;8.90;;;2.20;99.90;;;;;;5017932;28;20181;-74
2023/03/04 10:36:09;;;;;;;12.10;7.57;;;2.10;99.90;;;;;;5022691;28;20196;-74
2023/03/04 10:38:38;;;;;;;8.43;7.33;;;2.20;99.90;;;;;;5019302;28;20300;-74
2023/03/04 10:41:20;;;;;;;11.70;9.27;;;2.20;99.90;;;;;;5021921;28;20235;-74
2023/03/04 10:44:16;;;;;;;12.80;9.10;;;2.20;99.90;;;;;;5022517;28;20181;-74
2023/03/04 10:46:44;;;;;;;13.40;8.80;;;2.30;99.90;;;;;;5017841;28;20271;-73
2023/03/04 10:49:11;;;;;;;10.10;6.70;;;2.30;99.90;;;;;;5024365;28;20247;-74
2023/03/04 10:51:48;;;;;;;12.23;9.07;;;2.20;99.90;;;;;;5022410;28;20215;-75
2023/03/04 10:54:25;;;;;;;11.50;8.60;;;2.10;99.90;;;;;;5021861;28;20703;-73
2023/03/04 10:57:05;;;;;;;14.07;10.00;;;2.10;99.90;;;;;;5022559;28;20191;-73
2023/03/04 10:59:49;;;;;;;12.47;7.60;;;2.00;99.90;;;;;;5021932;28;20346;-73
2023/03/04 11:02:24;;;;;;;13.17;10.10;;;2.00;99.90;;;;;;5020742;28;20203;-74
2023/03/04 11:05:17;;;;;;;14.23;9.50;;;2.10;99.90;;;;;;5020758;28;20208;-74
2023/03/04 11:07:45;;;;;;;11.07;7.33;;;2.10;99.90;;;;;;5022140;28;20184;-73
2023/03/04 11:10:36;;;;;;;12.67;9.07;;;2.20;99.90;;;;;;5020292;28;20199;-74
2023/03/04 11:13:11;;;;;;;12.37;9.23;;;2.30;99.90;;;;;;5021846;28;20195;-74
2023/03/04 11:16:01;;;;;;;14.80;9.93;;;2.30;99.90;;;;;;5020411;28;20498;-74
2023/03/04 11:18:52;;;;;;;14.23;10.80;;;2.20;99.90;;;;;;5020035;28;20251;-74
2023/03/04 11:21:24;;;;;;;12.53;9.73;;;2.20;99.90;;;;;;5020649;28;20664;-73
2023/03/04 11:23:55;;;;;;;14.43;10.30;;;2.30;99.90;;;;;;5017914;28;20185;-73
2023/03/04 11:26:30;;;;;;;16.67;10.83;;;2.50;99.90;;;;;;5022724;28;20219;-73
2023/03/04 11:29:11;;;;;;;15.53;10.87;;;2.80;99.90;;;;;;5018644;28;20199;-74
2023/03/04 11:32:00;;;;;;;16.03;10.70;;;2.90;99.90;;;;;;5018583;28;20200;-74
2023/03/04 11:34:34;;;;;;;15.13;11.03;;;2.90;99.90;;;;;;5012680;28;20204;-74
2023/03/04 11:37:07;;;;;;;16.10;11.07;;;2.80;99.90;;;;;;5019124;28;20214;-74
2023/03/04 11:39:46;;;;;;;13.73;9.67;;;2.80;99.90;;;;;;5020201;28;20219;-75
2023/03/04 11:42:52;;;;;;;14.47;10.13;;;2.80;99.90;;;;;;5023002;28;20267;-74
2023/03/04 11:45:45;;;;;;;14.87;11.00;;;2.80;99.90;;;;;;5021052;28;20636;-73
2023/03/04 11:48:16;;;;;;;15.57;11.80;;;2.60;99.90;;;;;;5019067;28;20213;-74
2023/03/04 11:51:04;;;;;;;15.17;11.13;;;2.80;99.90;;;;;;5020483;28;20650;-74
2023/03/04 11:53:42;;;;;;;15.70;12.90;;;2.90;99.90;;;;;;5022003;28;20275;-73
2023/03/04 11:56:30;;;;;;;12.87;9.47;;;2.80;99.90;;;;;;5024954;28;20188;-73
2023/03/04 11:59:16;;;;;;;18.60;12.90;;;3.00;99.90;;;;;;5023368;28;20292;-73
2023/03/04 12:02:16;;;;;;;16.43;12.03;;;3.00;99.90;;;;;;5026366;28;20219;-72
2023/03/04 12:05:11;;;;;;;15.83;12.03;;;3.10;99.90;;;;;;5010371;28;20695;-73
2023/03/04 12:08:14;;;;;;;14.87;10.83;;;3.20;99.90;;;;;;5022247;28;20597;-73
2023/03/04 12:11:06;;;;;;;13.60;9.83;;;3.50;99.90;;;;;;5024961;28;21379;-73
2023/03/04 12:13:47;;;;;;;14.40;11.07;;;3.50;99.90;;;;;;5023538;28;20202;-72
2023/03/04 12:16:24;;;;;;;17.27;11.83;;;3.50;99.90;;;;;;5024328;28;20259;-73
2023/03/04 12:19:00;;;;;;;14.27;9.43;;;3.50;99.90;;;;;;5024872;28;20226;-72
2023/03/04 12:22:05;;;;;;;15.73;11.73;;;3.60;99.90;;;;;;5021966;28;20295;-73
2023/03/04 12:24:33;;;;;;;17.13;12.57;;;3.70;99.90;;;;;;5024173;28;20546;-73
2023/03/04 12:27:17;;;;;;;16.43;12.10;;;3.70;99.90;;;;;;5024531;28;20211;-74
2023/03/04 12:29:58;;;;;;;16.05;11.18;;;3.70;99.90;;;;;;5023645;28;20667;-74
2023/03/04 12:32:40;;;;;;;17.13;12.13;;;4.10;99.90;;;;;;5027221;28;20186;-73
2023/03/04 12:35:30;;;;;;;16.75;12.52;;;4.10;99.90;;;;;;5029958;28;20204;-73
2023/03/04 12:38:20;;;;;;;18.55;12.60;;;4.00;99.90;;;;;;5029551;28;20185;-74
2023/03/04 12:41:03;;;;;;;15.00;11.63;;;4.10;99.90;;;;;;5029497;28;20197;-73
2023/03/04 12:43:40;;;;;;;18.30;12.10;;;4.10;99.90;;;;;;5036112;28;20581;-74
2023/03/04 12:46:21;;;;;;;19.47;13.23;;;4.20;99.90;;;;;;5033696;28;20231;-73
2023/03/04 12:49:23;;;;;;;18.37;12.07;;;4.10;99.90;;;;;;5030579;28;20246;-74
2023/03/04 12:52:01;;;;;;;17.37;12.60;;;4.00;99.90;;;;;;5029540;28;20389;-74
2023/03/04 12:54:30;;;;;;;14.80;10.13;;;3.80;99.90;;;;;;5035193;28;20271;-74